Webcam Meteoipassi more information Webcam Meteoipassi


Pisa torre orologio more information Pisa torre orologio


avvertimento per Temporali more information blitzortung!


avvertimento per Pioggia more information rain snow radar


altri nostri siti meteo:

Pomeziameteo 1Sito sul meteo

Pomeziameteo DashboardSito sul meteo

Caput FrigorisSito sul meteo

BarcellonameteoSito sul meteo

MeteoipassiSito sul meteo

ViterbometeoSito sul meteo

MeteotortoretoSito sul meteo

TortoretometeolidoSito sul meteo

MeteoGonzagaSito sul meteo



Temporali Inizio validita dal: 18-09-2019 11:00 Fino: 22:59 Allerta per: Temporali Livello: Giallo info button
Pioggia Inizio validita dal: 18-09-2019 11:00 Fino: 20:59 Allerta per: Pioggia Livello: Giallo info button

Report METAR

   
LIRQ - Firenze
Dati ricevuti: Sep 18 2019 9:50 pm
Sereno  
Sereno  
   Vento: W 7.4 km/h
Vento: W 7.4 km/h
Temperatura: 24°C
P.to Rugiada: 17°C
Umidita: 65%
Barometro: 1015 hPa
Visibilita: oltre 10 km
dettagli cloud: Sereno
LIRQ 181950Z 24004KT CAVOK 24/17 Q1015
LIRP - Lucca
Dati ricevuti: Sep 18 2019 9:45 pm
Parzialmente nuvoloso  
Parzialmente nuvoloso  
   Vento: SE 5.6 km/h
Vento: SE 5.6 km/h
Temperatura: 21°C
P.to Rugiada: 20°C
Umidita: 94%
Barometro: 1015 hPa
Nuvole: Parzialmente nuvoloso
Visibilita: oltre 10 km
dettagli cloud: Parzialmente nuvoloso 1219.2 m
LIRP 181945Z 13003KT 9999 SCT040 21/20 Q1015 NOSIG
LIRP - Livorno
Dati ricevuti: Sep 18 2019 9:45 pm
Parzialmente nuvoloso  
Parzialmente nuvoloso  
   Vento: SE 5.6 km/h
Vento: SE 5.6 km/h
Temperatura: 21°C
P.to Rugiada: 20°C
Umidita: 94%
Barometro: 1015 hPa
Nuvole: Parzialmente nuvoloso
Visibilita: oltre 10 km
dettagli cloud: Parzialmente nuvoloso 1219.2 m
LIRP 181945Z 13003KT 9999 SCT040 21/20 Q1015 NOSIG
LIMP - Parma
Dati ricevuti: Sep 18 2019 9:50 pm
Light Thunderstorm, Pioggia, Molto nuvoloso  
Light Thunderstorm, Pioggia, Molto nuvoloso  
   Vento: NE 13 km/h
Vento: NE 13 km/h
Temperatura: 20°C
P.to Rugiada: 20°C
Umidita: 100%
Barometro: 1017 hPa
Nuvole: Molto nuvoloso
Visibilita: 6 km
dettagli cloud: Molto nuvoloso 914.4 m
LIMP 181950Z 07007KT 6000 -TSRA BKN030CB 20/20 Q1017
LIRF - Roma
Dati ricevuti: Sep 18 2019 9:50 pm
Pioggia leggera, Parzialmente nuvoloso  
Pioggia leggera, Parzialmente nuvoloso  
   Vento: SE 9.3 km/h
Vento: SE 9.3 km/h
Temperatura: 23°C
P.to Rugiada: 22°C
Umidita: 94%
Barometro: 1015 hPa
Nuvole: Parzialmente nuvoloso
Visibilita: 9 km
dettagli cloud: Parzialmente nuvoloso
LIRF 181950Z 13005KT 090V170 9000 -RA NSC 23/22 Q1015 TEMPO TSRA
 

Script sviluppato da  Saratoga-weather.org Adattato per il modello da  Weerstation Leuven

Potete trovare le nostre info meteo anche a:

European Weather Network

Weather Underground

AWEKAS

HAMweather, WeatherForYou, PWS Weather

Strumentazione usata:

Stazione meteo
Oregon Scientific WMR88

Programma gestore dati meteo
WVIEW

Server per i dati meteo
WDS-5

Provider
Anemos WDS-5

Oregon Scientific WMR88

WVIEW

WDS-5

Anemos WDS-5